sensor_id;sensor_type;location;lat;lon;timestamp;P1;durP1;ratioP1;P2;durP2;ratioP2
52468;SDS011;38381;53.688;10.776;2022-10-26T00:02:43;8.82;;;6.75;;
52468;SDS011;38381;53.688;10.776;2022-10-26T00:07:43;8.20;;;6.30;;
52468;SDS011;38381;53.688;10.776;2022-10-26T00:12:46;7.55;;;5.53;;
52468;SDS011;38381;53.688;10.776;2022-10-26T00:17:47;11.25;;;6.47;;
52468;SDS011;38381;53.688;10.776;2022-10-26T00:22:49;7.00;;;6.20;;
52468;SDS011;38381;53.688;10.776;2022-10-26T00:27:50;7.55;;;6.03;;
52468;SDS011;38381;53.688;10.776;2022-10-26T00:32:51;8.68;;;5.88;;
52468;SDS011;38381;53.688;10.776;2022-10-26T00:37:55;9.38;;;6.07;;
52468;SDS011;38381;53.688;10.776;2022-10-26T00:42:55;12.15;;;7.13;;
52468;SDS011;38381;53.688;10.776;2022-10-26T00:47:57;9.80;;;6.30;;
52468;SDS011;38381;53.688;10.776;2022-10-26T00:53:01;12.90;;;7.03;;
52468;SDS011;38381;53.688;10.776;2022-10-26T00:58:04;8.13;;;6.45;;
52468;SDS011;38381;53.688;10.776;2022-10-26T01:03:06;9.35;;;7.18;;
52468;SDS011;38381;53.688;10.776;2022-10-26T01:08:08;6.28;;;5.60;;
52468;SDS011;38381;53.688;10.776;2022-10-26T01:13:09;11.60;;;7.63;;
52468;SDS011;38381;53.688;10.776;2022-10-26T01:33:49;8.23;;;7.10;;
52468;SDS011;38381;53.688;10.776;2022-10-26T01:39:21;8.05;;;6.03;;
52468;SDS011;38381;53.688;10.776;2022-10-26T01:44:31;9.38;;;7.75;;
52468;SDS011;38381;53.688;10.776;2022-10-26T01:49:52;10.45;;;7.90;;
52468;SDS011;38381;53.688;10.776;2022-10-26T01:54:59;8.73;;;7.60;;
52468;SDS011;38381;53.688;10.776;2022-10-26T02:00:07;10.27;;;7.53;;
52468;SDS011;38381;53.688;10.776;2022-10-26T02:16:15;11.70;;;7.93;;
52468;SDS011;38381;53.688;10.776;2022-10-26T02:21:28;9.77;;;7.05;;
52468;SDS011;38381;53.688;10.776;2022-10-26T02:26:34;8.63;;;6.40;;
52468;SDS011;38381;53.688;10.776;2022-10-26T02:31:36;9.25;;;7.10;;
52468;SDS011;38381;53.688;10.776;2022-10-26T02:36:40;14.90;;;7.18;;
52468;SDS011;38381;53.688;10.776;2022-10-26T02:41:43;8.13;;;6.13;;
52468;SDS011;38381;53.688;10.776;2022-10-26T02:46:44;10.35;;;6.95;;
52468;SDS011;38381;53.688;10.776;2022-10-26T02:51:49;8.55;;;6.38;;
52468;SDS011;38381;53.688;10.776;2022-10-26T02:57:01;8.30;;;6.53;;
52468;SDS011;38381;53.688;10.776;2022-10-26T03:02:07;7.82;;;6.70;;
52468;SDS011;38381;53.688;10.776;2022-10-26T03:07:09;7.87;;;7.00;;
52468;SDS011;38381;53.688;10.776;2022-10-26T03:12:10;9.70;;;6.95;;
52468;SDS011;38381;53.688;10.776;2022-10-26T03:17:10;12.05;;;6.78;;
52468;SDS011;38381;53.688;10.776;2022-10-26T03:22:11;8.13;;;6.18;;
52468;SDS011;38381;53.688;10.776;2022-10-26T03:27:11;6.57;;;5.80;;
52468;SDS011;38381;53.688;10.776;2022-10-26T03:32:12;9.95;;;6.47;;
52468;SDS011;38381;53.688;10.776;2022-10-26T03:37:12;9.70;;;6.30;;
52468;SDS011;38381;53.688;10.776;2022-10-26T03:42:13;8.82;;;6.97;;
52468;SDS011;38381;53.688;10.776;2022-10-26T03:47:13;9.00;;;6.93;;
52468;SDS011;38381;53.688;10.776;2022-10-26T03:52:13;8.98;;;6.20;;
52468;SDS011;38381;53.688;10.776;2022-10-26T03:57:14;11.68;;;6.85;;
52468;SDS011;38381;53.688;10.776;2022-10-26T04:02:14;8.35;;;6.32;;
52468;SDS011;38381;53.688;10.776;2022-10-26T04:07:15;9.00;;;6.82;;
52468;SDS011;38381;53.688;10.776;2022-10-26T04:12:15;9.60;;;7.68;;
52468;SDS011;38381;53.688;10.776;2022-10-26T04:17:16;21.60;;;7.68;;
52468;SDS011;38381;53.688;10.776;2022-10-26T04:22:16;8.93;;;6.47;;
52468;SDS011;38381;53.688;10.776;2022-10-26T04:27:16;12.45;;;7.80;;
52468;SDS011;38381;53.688;10.776;2022-10-26T04:32:17;7.80;;;6.57;;
52468;SDS011;38381;53.688;10.776;2022-10-26T04:37:17;10.55;;;7.43;;
52468;SDS011;38381;53.688;10.776;2022-10-26T04:42:18;16.50;;;7.57;;
52468;SDS011;38381;53.688;10.776;2022-10-26T04:47:18;8.95;;;6.60;;
52468;SDS011;38381;53.688;10.776;2022-10-26T04:52:18;8.45;;;7.55;;
52468;SDS011;38381;53.688;10.776;2022-10-26T04:57:19;11.95;;;7.07;;
52468;SDS011;38381;53.688;10.776;2022-10-26T05:02:19;10.60;;;7.32;;
52468;SDS011;38381;53.688;10.776;2022-10-26T05:07:20;26.08;;;8.60;;
52468;SDS011;38381;53.688;10.776;2022-10-26T05:12:20;12.00;;;7.32;;
52468;SDS011;38381;53.688;10.776;2022-10-26T05:17:21;15.65;;;8.02;;
52468;SDS011;38381;53.688;10.776;2022-10-26T05:22:21;15.60;;;7.68;;
52468;SDS011;38381;53.688;10.776;2022-10-26T05:27:22;9.38;;;7.40;;
52468;SDS011;38381;53.688;10.776;2022-10-26T05:32:22;9.65;;;7.95;;
52468;SDS011;38381;53.688;10.776;2022-10-26T05:37:26;10.85;;;7.55;;
52468;SDS011;38381;53.688;10.776;2022-10-26T05:42:28;17.25;;;9.10;;
52468;SDS011;38381;53.688;10.776;2022-10-26T05:47:28;9.45;;;7.90;;
52468;SDS011;38381;53.688;10.776;2022-10-26T05:52:29;9.23;;;7.80;;
52468;SDS011;38381;53.688;10.776;2022-10-26T05:57:29;11.93;;;9.63;;
52468;SDS011;38381;53.688;10.776;2022-10-26T06:08:21;11.50;;;8.88;;
52468;SDS011;38381;53.688;10.776;2022-10-26T06:13:23;10.65;;;9.43;;
52468;SDS011;38381;53.688;10.776;2022-10-26T06:18:48;10.23;;;7.55;;
52468;SDS011;38381;53.688;10.776;2022-10-26T06:24:02;10.73;;;7.32;;
52468;SDS011;38381;53.688;10.776;2022-10-26T06:34:27;9.63;;;7.40;;
52468;SDS011;38381;53.688;10.776;2022-10-26T06:39:35;13.00;;;7.80;;
52468;SDS011;38381;53.688;10.776;2022-10-26T06:44:41;10.23;;;7.57;;
52468;SDS011;38381;53.688;10.776;2022-10-26T06:54:57;12.90;;;8.90;;
52468;SDS011;38381;53.688;10.776;2022-10-26T06:59:59;11.77;;;8.35;;
52468;SDS011;38381;53.688;10.776;2022-10-26T07:05:03;10.63;;;9.55;;
52468;SDS011;38381;53.688;10.776;2022-10-26T07:10:04;10.40;;;8.57;;
52468;SDS011;38381;53.688;10.776;2022-10-26T07:15:06;11.00;;;8.10;;
52468;SDS011;38381;53.688;10.776;2022-10-26T07:20:10;9.88;;;8.05;;
52468;SDS011;38381;53.688;10.776;2022-10-26T07:25:11;13.77;;;9.80;;
52468;SDS011;38381;53.688;10.776;2022-10-26T07:30:12;11.82;;;10.10;;
52468;SDS011;38381;53.688;10.776;2022-10-26T07:35:12;13.07;;;11.13;;
52468;SDS011;38381;53.688;10.776;2022-10-26T07:40:13;16.08;;;11.48;;
52468;SDS011;38381;53.688;10.776;2022-10-26T07:45:14;15.90;;;12.48;;
52468;SDS011;38381;53.688;10.776;2022-10-26T07:50:14;16.70;;;13.32;;
52468;SDS011;38381;53.688;10.776;2022-10-26T07:55:15;17.25;;;14.60;;
52468;SDS011;38381;53.688;10.776;2022-10-26T08:00:16;16.20;;;13.52;;
52468;SDS011;38381;53.688;10.776;2022-10-26T08:05:16;16.15;;;12.68;;
52468;SDS011;38381;53.688;10.776;2022-10-26T08:10:17;14.02;;;10.52;;
52468;SDS011;38381;53.688;10.776;2022-10-26T08:15:17;14.25;;;12.48;;
52468;SDS011;38381;53.688;10.776;2022-10-26T08:20:18;14.57;;;11.20;;
52468;SDS011;38381;53.688;10.776;2022-10-26T08:25:18;12.07;;;10.55;;
52468;SDS011;38381;53.688;10.776;2022-10-26T08:30:18;10.90;;;8.90;;
52468;SDS011;38381;53.688;10.776;2022-10-26T08:35:19;11.20;;;8.45;;
52468;SDS011;38381;53.688;10.776;2022-10-26T08:40:21;13.13;;;9.38;;
52468;SDS011;38381;53.688;10.776;2022-10-26T08:45:26;12.13;;;9.43;;
52468;SDS011;38381;53.688;10.776;2022-10-26T08:50:32;13.48;;;8.73;;
52468;SDS011;38381;53.688;10.776;2022-10-26T08:55:38;10.52;;;9.15;;
52468;SDS011;38381;53.688;10.776;2022-10-26T09:00:43;10.13;;;8.68;;
52468;SDS011;38381;53.688;10.776;2022-10-26T09:27:37;8.13;;;7.30;;
52468;SDS011;38381;53.688;10.776;2022-10-26T09:32:54;14.07;;;7.93;;
52468;SDS011;38381;53.688;10.776;2022-10-26T09:38:15;10.05;;;7.00;;
52468;SDS011;38381;53.688;10.776;2022-10-26T09:43:31;8.93;;;6.40;;
52468;SDS011;38381;53.688;10.776;2022-10-26T09:48:40;9.27;;;6.28;;
52468;SDS011;38381;53.688;10.776;2022-10-26T09:53:49;7.65;;;5.10;;
52468;SDS011;38381;53.688;10.776;2022-10-26T09:58:51;10.85;;;6.00;;
52468;SDS011;38381;53.688;10.776;2022-10-26T10:09:19;6.07;;;4.85;;
52468;SDS011;38381;53.688;10.776;2022-10-26T10:19:28;6.97;;;5.80;;
52468;SDS011;38381;53.688;10.776;2022-10-26T10:29:39;5.20;;;4.57;;
52468;SDS011;38381;53.688;10.776;2022-10-26T10:34:40;5.63;;;4.65;;
52468;SDS011;38381;53.688;10.776;2022-10-26T10:39:41;7.43;;;4.85;;
52468;SDS011;38381;53.688;10.776;2022-10-26T10:44:42;5.55;;;4.78;;
52468;SDS011;38381;53.688;10.776;2022-10-26T10:49:49;4.57;;;4.05;;
52468;SDS011;38381;53.688;10.776;2022-10-26T11:00:23;5.72;;;4.18;;
52468;SDS011;38381;53.688;10.776;2022-10-26T11:11:30;4.30;;;3.38;;
52468;SDS011;38381;53.688;10.776;2022-10-26T11:16:35;7.65;;;4.35;;
52468;SDS011;38381;53.688;10.776;2022-10-26T11:21:39;5.45;;;4.38;;
52468;SDS011;38381;53.688;10.776;2022-10-26T11:26:52;3.65;;;3.05;;
52468;SDS011;38381;53.688;10.776;2022-10-26T11:42:39;3.70;;;3.30;;
52468;SDS011;38381;53.688;10.776;2022-10-26T11:48:27;4.88;;;3.38;;
52468;SDS011;38381;53.688;10.776;2022-10-26T11:53:17;4.30;;;3.42;;
52468;SDS011;38381;53.688;10.776;2022-10-26T11:58:24;4.88;;;3.33;;
52468;SDS011;38381;53.688;10.776;2022-10-26T12:03:27;4.22;;;3.55;;
52468;SDS011;38381;53.688;10.776;2022-10-26T12:08:35;6.55;;;3.80;;
52468;SDS011;38381;53.688;10.776;2022-10-26T12:13:41;3.70;;;3.40;;
52468;SDS011;38381;53.688;10.776;2022-10-26T12:18:53;5.65;;;3.25;;
52468;SDS011;38381;53.688;10.776;2022-10-26T12:24:46;5.43;;;3.47;;
52468;SDS011;38381;53.688;10.776;2022-10-26T12:29:28;8.07;;;4.03;;
52468;SDS011;38381;53.688;10.776;2022-10-26T12:39:39;4.57;;;3.30;;
52468;SDS011;38381;53.688;10.776;2022-10-26T13:00:32;4.43;;;3.20;;
52468;SDS011;38381;53.688;10.776;2022-10-26T13:11:03;2.35;;;1.70;;
52468;SDS011;38381;53.688;10.776;2022-10-26T13:16:09;4.55;;;2.80;;
52468;SDS011;38381;53.688;10.776;2022-10-26T13:21:11;2.67;;;2.08;;
52468;SDS011;38381;53.688;10.776;2022-10-26T13:26:17;5.18;;;3.13;;
52468;SDS011;38381;53.688;10.776;2022-10-26T13:36:39;3.40;;;2.33;;
52468;SDS011;38381;53.688;10.776;2022-10-26T13:41:41;3.53;;;2.10;;
52468;SDS011;38381;53.688;10.776;2022-10-26T13:46:43;4.30;;;2.65;;
52468;SDS011;38381;53.688;10.776;2022-10-26T13:51:46;5.22;;;2.45;;
52468;SDS011;38381;53.688;10.776;2022-10-26T13:56:58;4.05;;;2.40;;
52468;SDS011;38381;53.688;10.776;2022-10-26T14:02:14;2.97;;;2.10;;
52468;SDS011;38381;53.688;10.776;2022-10-26T14:07:22;4.30;;;2.60;;
52468;SDS011;38381;53.688;10.776;2022-10-26T14:12:25;3.20;;;2.17;;
52468;SDS011;38381;53.688;10.776;2022-10-26T14:17:29;3.30;;;2.55;;
52468;SDS011;38381;53.688;10.776;2022-10-26T14:22:30;3.67;;;2.47;;
52468;SDS011;38381;53.688;10.776;2022-10-26T14:27:31;3.80;;;2.80;;
52468;SDS011;38381;53.688;10.776;2022-10-26T14:32:37;4.50;;;2.40;;
52468;SDS011;38381;53.688;10.776;2022-10-26T14:37:51;3.00;;;1.77;;
52468;SDS011;38381;53.688;10.776;2022-10-26T14:43:03;3.30;;;2.33;;
52468;SDS011;38381;53.688;10.776;2022-10-26T14:48:05;5.10;;;2.50;;
52468;SDS011;38381;53.688;10.776;2022-10-26T14:53:13;5.07;;;2.40;;
52468;SDS011;38381;53.688;10.776;2022-10-26T14:58:19;6.15;;;3.50;;
52468;SDS011;38381;53.688;10.776;2022-10-26T15:03:22;4.68;;;2.97;;
52468;SDS011;38381;53.688;10.776;2022-10-26T15:08:39;4.25;;;3.08;;
52468;SDS011;38381;53.688;10.776;2022-10-26T15:13:41;7.60;;;2.53;;
52468;SDS011;38381;53.688;10.776;2022-10-26T15:18:43;2.60;;;2.40;;
52468;SDS011;38381;53.688;10.776;2022-10-26T15:23:46;4.22;;;2.63;;
52468;SDS011;38381;53.688;10.776;2022-10-26T15:28:46;5.60;;;3.03;;
52468;SDS011;38381;53.688;10.776;2022-10-26T15:38:52;7.47;;;3.58;;
52468;SDS011;38381;53.688;10.776;2022-10-26T15:48:56;7.18;;;3.65;;
52468;SDS011;38381;53.688;10.776;2022-10-26T15:54:01;3.30;;;3.00;;
52468;SDS011;38381;53.688;10.776;2022-10-26T15:59:02;5.57;;;3.33;;
52468;SDS011;38381;53.688;10.776;2022-10-26T16:04:03;6.22;;;2.83;;
52468;SDS011;38381;53.688;10.776;2022-10-26T16:09:04;3.75;;;2.72;;
52468;SDS011;38381;53.688;10.776;2022-10-26T16:14:07;5.22;;;3.20;;
52468;SDS011;38381;53.688;10.776;2022-10-26T16:24:10;3.92;;;3.38;;
52468;SDS011;38381;53.688;10.776;2022-10-26T16:29:11;3.95;;;2.85;;
52468;SDS011;38381;53.688;10.776;2022-10-26T16:34:11;4.85;;;3.22;;
52468;SDS011;38381;53.688;10.776;2022-10-26T16:39:11;3.17;;;2.88;;
52468;SDS011;38381;53.688;10.776;2022-10-26T16:44:13;5.22;;;3.33;;
52468;SDS011;38381;53.688;10.776;2022-10-26T16:49:13;9.95;;;7.70;;
52468;SDS011;38381;53.688;10.776;2022-10-26T16:54:14;4.10;;;3.20;;
52468;SDS011;38381;53.688;10.776;2022-10-26T16:59:14;5.05;;;4.00;;
52468;SDS011;38381;53.688;10.776;2022-10-26T17:04:15;6.40;;;3.70;;
52468;SDS011;38381;53.688;10.776;2022-10-26T17:09:15;5.47;;;3.83;;
52468;SDS011;38381;53.688;10.776;2022-10-26T17:14:15;4.25;;;3.38;;
52468;SDS011;38381;53.688;10.776;2022-10-26T17:19:16;5.32;;;4.00;;
52468;SDS011;38381;53.688;10.776;2022-10-26T17:24:16;7.80;;;3.50;;
52468;SDS011;38381;53.688;10.776;2022-10-26T17:29:18;4.68;;;3.30;;
52468;SDS011;38381;53.688;10.776;2022-10-26T17:34:18;5.22;;;4.13;;
52468;SDS011;38381;53.688;10.776;2022-10-26T17:39:19;5.90;;;4.22;;
52468;SDS011;38381;53.688;10.776;2022-10-26T17:44:19;4.90;;;4.07;;
52468;SDS011;38381;53.688;10.776;2022-10-26T17:49:20;4.95;;;3.65;;
52468;SDS011;38381;53.688;10.776;2022-10-26T17:54:20;7.85;;;4.68;;
52468;SDS011;38381;53.688;10.776;2022-10-26T17:59:20;3.35;;;3.05;;
52468;SDS011;38381;53.688;10.776;2022-10-26T18:04:21;4.82;;;3.67;;
52468;SDS011;38381;53.688;10.776;2022-10-26T18:09:21;4.05;;;3.45;;
52468;SDS011;38381;53.688;10.776;2022-10-26T18:14:22;5.82;;;3.30;;
52468;SDS011;38381;53.688;10.776;2022-10-26T18:19:23;5.63;;;4.30;;
52468;SDS011;38381;53.688;10.776;2022-10-26T18:24:23;5.03;;;3.78;;
52468;SDS011;38381;53.688;10.776;2022-10-26T18:29:23;6.38;;;3.75;;
52468;SDS011;38381;53.688;10.776;2022-10-26T18:34:24;6.25;;;4.30;;
52468;SDS011;38381;53.688;10.776;2022-10-26T18:39:24;5.95;;;4.30;;
52468;SDS011;38381;53.688;10.776;2022-10-26T18:44:25;7.43;;;4.55;;
52468;SDS011;38381;53.688;10.776;2022-10-26T18:49:25;5.57;;;4.10;;
52468;SDS011;38381;53.688;10.776;2022-10-26T18:54:26;6.20;;;4.25;;
52468;SDS011;38381;53.688;10.776;2022-10-26T18:59:26;8.07;;;4.10;;
52468;SDS011;38381;53.688;10.776;2022-10-26T19:04:27;7.43;;;4.13;;
52468;SDS011;38381;53.688;10.776;2022-10-26T19:09:27;4.68;;;3.92;;
52468;SDS011;38381;53.688;10.776;2022-10-26T19:14:27;5.57;;;3.97;;
52468;SDS011;38381;53.688;10.776;2022-10-26T19:19:28;11.27;;;4.15;;
52468;SDS011;38381;53.688;10.776;2022-10-26T19:24:29;6.70;;;4.05;;
52468;SDS011;38381;53.688;10.776;2022-10-26T19:29:29;7.00;;;4.40;;
52468;SDS011;38381;53.688;10.776;2022-10-26T19:34:30;5.22;;;3.65;;
52468;SDS011;38381;53.688;10.776;2022-10-26T19:39:30;7.75;;;3.58;;
52468;SDS011;38381;53.688;10.776;2022-10-26T19:44:30;5.43;;;3.80;;
52468;SDS011;38381;53.688;10.776;2022-10-26T19:49:31;5.85;;;3.55;;
52468;SDS011;38381;53.688;10.776;2022-10-26T19:54:31;4.28;;;3.88;;
52468;SDS011;38381;53.688;10.776;2022-10-26T19:59:32;4.07;;;3.67;;
52468;SDS011;38381;53.688;10.776;2022-10-26T20:04:33;6.85;;;3.90;;
52468;SDS011;38381;53.688;10.776;2022-10-26T20:09:33;4.65;;;4.03;;
52468;SDS011;38381;53.688;10.776;2022-10-26T20:14:34;7.50;;;3.55;;
52468;SDS011;38381;53.688;10.776;2022-10-26T20:19:34;4.13;;;3.67;;
52468;SDS011;38381;53.688;10.776;2022-10-26T20:24:34;3.78;;;3.35;;
52468;SDS011;38381;53.688;10.776;2022-10-26T20:29:35;5.35;;;3.80;;
52468;SDS011;38381;53.688;10.776;2022-10-26T20:34:35;5.60;;;3.47;;
52468;SDS011;38381;53.688;10.776;2022-10-26T20:39:36;4.40;;;3.97;;
52468;SDS011;38381;53.688;10.776;2022-10-26T20:44:38;4.35;;;3.20;;
52468;SDS011;38381;53.688;10.776;2022-10-26T20:49:42;10.50;;;4.43;;
52468;SDS011;38381;53.688;10.776;2022-10-26T20:54:59;5.22;;;4.55;;
52468;SDS011;38381;53.688;10.776;2022-10-26T21:00:06;4.57;;;4.05;;
52468;SDS011;38381;53.688;10.776;2022-10-26T21:05:09;10.75;;;5.18;;
52468;SDS011;38381;53.688;10.776;2022-10-26T21:10:10;7.93;;;4.10;;
52468;SDS011;38381;53.688;10.776;2022-10-26T21:15:10;7.07;;;3.88;;
52468;SDS011;38381;53.688;10.776;2022-10-26T21:20:11;6.60;;;4.63;;
52468;SDS011;38381;53.688;10.776;2022-10-26T21:25:11;5.40;;;4.63;;
52468;SDS011;38381;53.688;10.776;2022-10-26T21:30:12;6.55;;;4.38;;
52468;SDS011;38381;53.688;10.776;2022-10-26T21:35:12;4.20;;;3.65;;
52468;SDS011;38381;53.688;10.776;2022-10-26T21:40:13;6.15;;;3.83;;
52468;SDS011;38381;53.688;10.776;2022-10-26T21:45:14;6.65;;;4.22;;
52468;SDS011;38381;53.688;10.776;2022-10-26T21:50:14;4.18;;;3.70;;
52468;SDS011;38381;53.688;10.776;2022-10-26T21:55:15;9.93;;;4.13;;
52468;SDS011;38381;53.688;10.776;2022-10-26T22:00:15;6.25;;;3.95;;
52468;SDS011;38381;53.688;10.776;2022-10-26T22:05:16;5.75;;;3.53;;
52468;SDS011;38381;53.688;10.776;2022-10-26T22:10:16;6.97;;;4.05;;
52468;SDS011;38381;53.688;10.776;2022-10-26T22:15:17;5.80;;;4.35;;
52468;SDS011;38381;53.688;10.776;2022-10-26T22:20:20;4.93;;;3.92;;
52468;SDS011;38381;53.688;10.776;2022-10-26T22:25:20;7.43;;;4.40;;
52468;SDS011;38381;53.688;10.776;2022-10-26T22:30:21;6.35;;;4.57;;
52468;SDS011;38381;53.688;10.776;2022-10-26T22:35:21;5.63;;;4.72;;
52468;SDS011;38381;53.688;10.776;2022-10-26T22:40:22;4.88;;;4.28;;
52468;SDS011;38381;53.688;10.776;2022-10-26T22:45:22;8.13;;;4.80;;
52468;SDS011;38381;53.688;10.776;2022-10-26T22:50:23;7.78;;;4.70;;
52468;SDS011;38381;53.688;10.776;2022-10-26T22:55:23;7.85;;;4.60;;
52468;SDS011;38381;53.688;10.776;2022-10-26T23:00:23;9.10;;;4.93;;
52468;SDS011;38381;53.688;10.776;2022-10-26T23:05:24;5.32;;;4.75;;
52468;SDS011;38381;53.688;10.776;2022-10-26T23:10:24;5.60;;;4.95;;
52468;SDS011;38381;53.688;10.776;2022-10-26T23:15:25;5.60;;;4.50;;
52468;SDS011;38381;53.688;10.776;2022-10-26T23:20:25;5.93;;;4.53;;
52468;SDS011;38381;53.688;10.776;2022-10-26T23:25:26;6.07;;;4.90;;
52468;SDS011;38381;53.688;10.776;2022-10-26T23:30:27;9.13;;;5.13;;
52468;SDS011;38381;53.688;10.776;2022-10-26T23:35:27;8.35;;;5.68;;
52468;SDS011;38381;53.688;10.776;2022-10-26T23:40:28;5.78;;;4.82;;
52468;SDS011;38381;53.688;10.776;2022-10-26T23:45:28;7.20;;;5.90;;
52468;SDS011;38381;53.688;10.776;2022-10-26T23:50:28;6.90;;;5.38;;
52468;SDS011;38381;53.688;10.776;2022-10-26T23:55:29;6.17;;;5.07;;
